sensor_id;sensor_type;location;lat;lon;timestamp;pressure;altitude;pressure_sealevel;temperature;humidity
22000;BME280;11164;48.818;2.322;2023-03-01T00:02:00;101687.66;;;3.45;30.30
22000;BME280;11164;48.818;2.322;2023-03-01T00:04:26;101696.50;;;3.34;30.36
22000;BME280;11164;48.818;2.322;2023-03-01T00:06:53;101688.44;;;3.57;30.04
22000;BME280;11164;48.818;2.322;2023-03-01T00:09:18;101695.13;;;3.62;29.44
22000;BME280;11164;48.818;2.322;2023-03-01T00:11:44;101693.78;;;3.57;29.88
22000;BME280;11164;48.818;2.322;2023-03-01T00:14:09;101691.75;;;3.38;29.73
22000;BME280;11164;48.818;2.322;2023-03-01T00:16:40;101700.44;;;3.62;29.65
22000;BME280;11164;48.818;2.322;2023-03-01T00:19:07;101704.50;;;3.45;29.74
22000;BME280;11164;48.818;2.322;2023-03-01T00:21:33;101701.75;;;3.24;30.64
22000;BME280;11164;48.818;2.322;2023-03-01T00:24:00;101707.06;;;3.13;30.04
22000;BME280;11164;48.818;2.322;2023-03-01T00:26:26;101695.69;;;3.22;30.59
22000;BME280;11164;48.818;2.322;2023-03-01T00:28:52;101709.38;;;3.18;30.45
22000;BME280;11164;48.818;2.322;2023-03-01T00:31:23;101703.94;;;3.08;30.79
22000;BME280;11164;48.818;2.322;2023-03-01T00:33:52;101692.44;;;3.07;30.32
22000;BME280;11164;48.818;2.322;2023-03-01T00:36:23;101707.78;;;3.26;30.01
22000;BME280;11164;48.818;2.322;2023-03-01T00:38:48;101705.72;;;2.73;30.86
22000;BME280;11164;48.818;2.322;2023-03-01T00:41:16;101708.03;;;3.01;30.68
22000;BME280;11164;48.818;2.322;2023-03-01T00:43:43;101706.81;;;2.82;30.88
22000;BME280;11164;48.818;2.322;2023-03-01T00:46:14;101693.16;;;2.64;31.17
22000;BME280;11164;48.818;2.322;2023-03-01T00:48:40;101703.69;;;2.77;31.16
22000;BME280;11164;48.818;2.322;2023-03-01T00:51:10;101702.00;;;2.98;30.45
22000;BME280;11164;48.818;2.322;2023-03-01T00:53:36;101702.97;;;2.97;30.43
22000;BME280;11164;48.818;2.322;2023-03-01T00:56:03;101692.91;;;2.78;31.10
22000;BME280;11164;48.818;2.322;2023-03-01T00:58:29;101704.53;;;3.11;30.57
22000;BME280;11164;48.818;2.322;2023-03-01T01:00:55;101696.13;;;3.27;30.03
22000;BME280;11164;48.818;2.322;2023-03-01T01:03:21;101708.66;;;2.93;30.85
22000;BME280;11164;48.818;2.322;2023-03-01T01:05:47;101710.00;;;2.98;30.59
22000;BME280;11164;48.818;2.322;2023-03-01T01:08:12;101702.84;;;3.10;30.45
22000;BME280;11164;48.818;2.322;2023-03-01T01:10:38;101710.97;;;3.09;30.54
22000;BME280;11164;48.818;2.322;2023-03-01T01:13:03;101707.69;;;2.94;30.72
22000;BME280;11164;48.818;2.322;2023-03-01T01:15:29;101698.72;;;2.72;30.93
22000;BME280;11164;48.818;2.322;2023-03-01T01:17:57;101702.59;;;2.91;30.46
22000;BME280;11164;48.818;2.322;2023-03-01T01:20:23;101702.84;;;2.88;31.27
22000;BME280;11164;48.818;2.322;2023-03-01T01:22:48;101697.75;;;2.73;31.35
22000;BME280;11164;48.818;2.322;2023-03-01T01:25:14;101692.50;;;2.38;31.45
22000;BME280;11164;48.818;2.322;2023-03-01T01:27:39;101697.47;;;2.54;31.16
22000;BME280;11164;48.818;2.322;2023-03-01T01:30:05;101701.88;;;2.77;30.79
22000;BME280;11164;48.818;2.322;2023-03-01T01:32:30;101699.31;;;2.87;31.08
22000;BME280;11164;48.818;2.322;2023-03-01T01:34:56;101688.19;;;2.93;31.21
22000;BME280;11164;48.818;2.322;2023-03-01T01:37:21;101688.78;;;2.74;31.37
22000;BME280;11164;48.818;2.322;2023-03-01T01:39:47;101692.06;;;3.01;30.39
22000;BME280;11164;48.818;2.322;2023-03-01T01:42:15;101684.19;;;2.65;31.14
22000;BME280;11164;48.818;2.322;2023-03-01T01:44:42;101679.25;;;2.72;31.30
22000;BME280;11164;48.818;2.322;2023-03-01T01:47:17;101664.81;;;2.74;31.96
22000;BME280;11164;48.818;2.322;2023-03-01T01:49:56;101681.03;;;2.71;31.88
22000;BME280;11164;48.818;2.322;2023-03-01T01:52:26;101665.19;;;2.81;31.75
22000;BME280;11164;48.818;2.322;2023-03-01T01:55:08;101676.94;;;2.67;31.15
22000;BME280;11164;48.818;2.322;2023-03-01T01:57:39;101673.66;;;2.75;31.65
22000;BME280;11164;48.818;2.322;2023-03-01T02:00:17;101660.59;;;2.83;32.13
22000;BME280;11164;48.818;2.322;2023-03-01T02:02:44;101647.50;;;2.80;31.79
22000;BME280;11164;48.818;2.322;2023-03-01T02:07:39;101653.19;;;2.98;30.59
22000;BME280;11164;48.818;2.322;2023-03-01T02:10:06;101656.09;;;2.95;30.66
22000;BME280;11164;48.818;2.322;2023-03-01T02:12:34;101658.78;;;2.95;30.65
22000;BME280;11164;48.818;2.322;2023-03-01T02:15:00;101639.03;;;2.86;31.28
22000;BME280;11164;48.818;2.322;2023-03-01T02:17:25;101666.28;;;2.90;31.23
22000;BME280;11164;48.818;2.322;2023-03-01T02:22:44;101666.53;;;2.53;32.53
22000;BME280;11164;48.818;2.322;2023-03-01T02:30:29;101653.22;;;2.75;30.89
22000;BME280;11164;48.818;2.322;2023-03-01T02:32:57;101644.47;;;2.73;31.73
22000;BME280;11164;48.818;2.322;2023-03-01T02:35:35;101646.66;;;2.68;31.70
22000;BME280;11164;48.818;2.322;2023-03-01T02:38:03;101641.56;;;2.54;31.69
22000;BME280;11164;48.818;2.322;2023-03-01T02:40:33;101652.22;;;2.43;32.29
22000;BME280;11164;48.818;2.322;2023-03-01T02:43:01;101639.28;;;2.38;32.06
22000;BME280;11164;48.818;2.322;2023-03-01T02:45:28;101638.88;;;2.31;32.01
22000;BME280;11164;48.818;2.322;2023-03-01T02:47:55;101639.63;;;2.22;32.14
22000;BME280;11164;48.818;2.322;2023-03-01T02:53:04;101644.25;;;2.54;32.11
22000;BME280;11164;48.818;2.322;2023-03-01T02:55:33;101612.78;;;2.48;31.60
22000;BME280;11164;48.818;2.322;2023-03-01T02:58:02;101636.00;;;2.68;32.06
22000;BME280;11164;48.818;2.322;2023-03-01T03:00:31;101628.63;;;2.60;31.83
22000;BME280;11164;48.818;2.322;2023-03-01T03:02:59;101634.31;;;2.45;32.05
22000;BME280;11164;48.818;2.322;2023-03-01T03:05:27;101633.56;;;2.20;31.94
22000;BME280;11164;48.818;2.322;2023-03-01T03:07:53;101626.28;;;2.11;33.46
22000;BME280;11164;48.818;2.322;2023-03-01T03:10:27;101624.13;;;2.27;32.41
22000;BME280;11164;48.818;2.322;2023-03-01T03:12:56;101620.34;;;2.07;32.21
22000;BME280;11164;48.818;2.322;2023-03-01T03:15:22;101612.03;;;2.12;32.82
22000;BME280;11164;48.818;2.322;2023-03-01T03:17:48;101612.88;;;2.24;32.47
22000;BME280;11164;48.818;2.322;2023-03-01T03:20:16;101609.56;;;1.97;32.79
22000;BME280;11164;48.818;2.322;2023-03-01T03:22:45;101610.72;;;2.29;32.29
22000;BME280;11164;48.818;2.322;2023-03-01T03:25:11;101609.50;;;2.21;32.11
22000;BME280;11164;48.818;2.322;2023-03-01T03:27:38;101607.19;;;2.17;32.26
22000;BME280;11164;48.818;2.322;2023-03-01T03:30:05;101609.63;;;2.31;31.93
22000;BME280;11164;48.818;2.322;2023-03-01T03:32:38;101591.22;;;2.28;32.93
22000;BME280;11164;48.818;2.322;2023-03-01T03:35:04;101607.44;;;2.36;32.35
22000;BME280;11164;48.818;2.322;2023-03-01T03:37:36;101609.88;;;2.51;31.80
22000;BME280;11164;48.818;2.322;2023-03-01T03:40:21;101608.41;;;2.24;32.15
22000;BME280;11164;48.818;2.322;2023-03-01T03:42:46;101600.91;;;2.40;32.06
22000;BME280;11164;48.818;2.322;2023-03-01T03:45:11;101601.03;;;2.28;32.85
22000;BME280;11164;48.818;2.322;2023-03-01T03:47:37;101605.63;;;2.26;32.63
22000;BME280;11164;48.818;2.322;2023-03-01T03:50:02;101609.00;;;2.28;32.34
22000;BME280;11164;48.818;2.322;2023-03-01T03:52:27;101601.00;;;2.05;32.69
22000;BME280;11164;48.818;2.322;2023-03-01T03:54:53;101586.38;;;1.99;32.79
22000;BME280;11164;48.818;2.322;2023-03-01T03:57:18;101600.69;;;1.85;33.37
22000;BME280;11164;48.818;2.322;2023-03-01T03:59:43;101586.56;;;1.85;32.78
22000;BME280;11164;48.818;2.322;2023-03-01T04:02:09;101601.28;;;1.89;33.03
22000;BME280;11164;48.818;2.322;2023-03-01T04:04:34;101602.09;;;2.14;32.84
22000;BME280;11164;48.818;2.322;2023-03-01T04:06:59;101606.69;;;2.23;32.42
22000;BME280;11164;48.818;2.322;2023-03-01T04:09:25;101608.88;;;2.18;32.33
22000;BME280;11164;48.818;2.322;2023-03-01T04:11:50;101605.59;;;2.03;33.24
22000;BME280;11164;48.818;2.322;2023-03-01T04:14:15;101602.31;;;2.11;32.90
22000;BME280;11164;48.818;2.322;2023-03-01T04:16:41;101603.47;;;1.95;33.08
22000;BME280;11164;48.818;2.322;2023-03-01T04:19:06;101602.34;;;1.87;33.15
22000;BME280;11164;48.818;2.322;2023-03-01T04:21:31;101596.94;;;1.88;33.11
22000;BME280;11164;48.818;2.322;2023-03-01T04:23:57;101603.44;;;2.08;32.71
22000;BME280;11164;48.818;2.322;2023-03-01T04:26:22;101609.84;;;2.17;32.57
22000;BME280;11164;48.818;2.322;2023-03-01T04:28:48;101606.34;;;2.28;32.37
22000;BME280;11164;48.818;2.322;2023-03-01T04:31:18;101600.28;;;2.14;32.83
22000;BME280;11164;48.818;2.322;2023-03-01T04:33:48;101602.94;;;2.14;33.03
22000;BME280;11164;48.818;2.322;2023-03-01T04:36:15;101598.47;;;2.15;32.95
22000;BME280;11164;48.818;2.322;2023-03-01T04:38:42;101590.59;;;2.02;32.86
22000;BME280;11164;48.818;2.322;2023-03-01T04:41:09;101575.84;;;2.09;32.88
22000;BME280;11164;48.818;2.322;2023-03-01T04:43:36;101582.75;;;2.12;32.95
22000;BME280;11164;48.818;2.322;2023-03-01T04:46:13;101583.09;;;1.96;34.91
22000;BME280;11164;48.818;2.322;2023-03-01T04:48:40;101592.94;;;1.82;33.54
22000;BME280;11164;48.818;2.322;2023-03-01T04:51:06;101588.47;;;1.47;33.86
22000;BME280;11164;48.818;2.322;2023-03-01T04:53:32;101581.63;;;1.56;33.92
22000;BME280;11164;48.818;2.322;2023-03-01T04:55:58;101586.84;;;1.69;34.48
22000;BME280;11164;48.818;2.322;2023-03-01T04:58:26;101566.69;;;1.42;34.22
22000;BME280;11164;48.818;2.322;2023-03-01T05:00:52;101582.59;;;1.31;34.53
22000;BME280;11164;48.818;2.322;2023-03-01T05:03:17;101584.47;;;1.42;34.40
22000;BME280;11164;48.818;2.322;2023-03-01T05:05:44;101583.97;;;1.37;34.38
22000;BME280;11164;48.818;2.322;2023-03-01T05:08:09;101561.00;;;1.36;34.85
22000;BME280;11164;48.818;2.322;2023-03-01T05:10:43;101564.84;;;1.32;34.90
22000;BME280;11164;48.818;2.322;2023-03-01T05:13:09;101577.34;;;1.42;34.71
22000;BME280;11164;48.818;2.322;2023-03-01T05:15:34;101575.72;;;1.64;34.18
22000;BME280;11164;48.818;2.322;2023-03-01T05:18:01;101562.91;;;1.69;33.88
22000;BME280;11164;48.818;2.322;2023-03-01T05:20:29;101571.50;;;1.73;34.04
22000;BME280;11164;48.818;2.322;2023-03-01T05:22:56;101570.47;;;1.51;34.69
22000;BME280;11164;48.818;2.322;2023-03-01T05:25:23;101573.34;;;1.48;34.33
22000;BME280;11164;48.818;2.322;2023-03-01T05:27:49;101570.38;;;1.53;34.63
22000;BME280;11164;48.818;2.322;2023-03-01T05:30:14;101549.28;;;1.74;33.31
22000;BME280;11164;48.818;2.322;2023-03-01T05:32:50;101577.69;;;1.84;35.21
22000;BME280;11164;48.818;2.322;2023-03-01T05:35:20;101563.56;;;1.84;33.55
22000;BME280;11164;48.818;2.322;2023-03-01T05:37:47;101572.22;;;1.99;33.27
22000;BME280;11164;48.818;2.322;2023-03-01T05:40:16;101574.34;;;1.94;33.46
22000;BME280;11164;48.818;2.322;2023-03-01T05:42:44;101567.06;;;1.84;33.64
22000;BME280;11164;48.818;2.322;2023-03-01T05:45:09;101576.97;;;1.82;33.74
22000;BME280;11164;48.818;2.322;2023-03-01T05:47:35;101572.47;;;1.72;34.30
22000;BME280;11164;48.818;2.322;2023-03-01T05:50:01;101572.50;;;1.83;34.38
22000;BME280;11164;48.818;2.322;2023-03-01T05:52:26;101563.19;;;1.77;34.20
22000;BME280;11164;48.818;2.322;2023-03-01T05:54:51;101570.44;;;1.75;34.32
22000;BME280;11164;48.818;2.322;2023-03-01T05:57:17;101563.56;;;1.84;34.45
22000;BME280;11164;48.818;2.322;2023-03-01T05:59:42;101563.56;;;1.84;33.95
22000;BME280;11164;48.818;2.322;2023-03-01T06:02:07;101558.75;;;1.89;34.26
22000;BME280;11164;48.818;2.322;2023-03-01T06:04:33;101562.47;;;1.75;34.01
22000;BME280;11164;48.818;2.322;2023-03-01T06:06:58;101560.66;;;1.40;34.83
22000;BME280;11164;48.818;2.322;2023-03-01T06:09:23;101559.50;;;1.56;34.68
22000;BME280;11164;48.818;2.322;2023-03-01T06:11:51;101559.97;;;1.50;34.39
22000;BME280;11164;48.818;2.322;2023-03-01T06:14:16;101562.06;;;1.57;34.78
22000;BME280;11164;48.818;2.322;2023-03-01T06:16:41;101553.88;;;1.72;34.11
22000;BME280;11164;48.818;2.322;2023-03-01T06:19:07;101521.69;;;1.63;34.19
22000;BME280;11164;48.818;2.322;2023-03-01T06:21:32;101542.56;;;1.92;33.48
22000;BME280;11164;48.818;2.322;2023-03-01T06:23:57;101538.75;;;1.72;34.40
22000;BME280;11164;48.818;2.322;2023-03-01T06:26:23;101539.25;;;1.66;34.45
22000;BME280;11164;48.818;2.322;2023-03-01T06:28:48;101536.59;;;1.77;34.31
22000;BME280;11164;48.818;2.322;2023-03-01T06:31:14;101538.03;;;1.81;34.01
22000;BME280;11164;48.818;2.322;2023-03-01T06:33:39;101536.03;;;1.85;33.99
22000;BME280;11164;48.818;2.322;2023-03-01T06:36:05;101513.78;;;1.39;34.78
22000;BME280;11164;48.818;2.322;2023-03-01T06:38:30;101538.91;;;1.46;35.14
22000;BME280;11164;48.818;2.322;2023-03-01T06:40:56;101535.59;;;1.56;35.16
22000;BME280;11164;48.818;2.322;2023-03-01T06:43:22;101534.97;;;1.52;35.00
22000;BME280;11164;48.818;2.322;2023-03-01T06:45:48;101542.94;;;1.52;35.44
22000;BME280;11164;48.818;2.322;2023-03-01T06:48:13;101528.78;;;1.52;34.67
22000;BME280;11164;48.818;2.322;2023-03-01T06:50:39;101526.00;;;1.42;35.15
22000;BME280;11164;48.818;2.322;2023-03-01T06:53:04;101530.81;;;1.37;35.61
22000;BME280;11164;48.818;2.322;2023-03-01T06:55:30;101522.69;;;1.62;35.15
22000;BME280;11164;48.818;2.322;2023-03-01T06:58:00;101520.13;;;1.61;34.93
22000;BME280;11164;48.818;2.322;2023-03-01T07:00:26;101521.59;;;1.65;35.33
22000;BME280;11164;48.818;2.322;2023-03-01T07:02:52;101515.81;;;1.82;34.87
22000;BME280;11164;48.818;2.322;2023-03-01T07:05:18;101515.41;;;2.11;34.50
22000;BME280;11164;48.818;2.322;2023-03-01T07:07:43;101513.56;;;2.12;34.35
22000;BME280;11164;48.818;2.322;2023-03-01T07:10:09;101518.41;;;2.18;34.30
22000;BME280;11164;48.818;2.322;2023-03-01T07:12:35;101522.28;;;2.14;34.58
22000;BME280;11164;48.818;2.322;2023-03-01T07:15:00;101510.81;;;2.13;34.69
22000;BME280;11164;48.818;2.322;2023-03-01T07:17:26;101504.00;;;2.32;34.48
22000;BME280;11164;48.818;2.322;2023-03-01T07:19:51;101511.28;;;2.41;34.16
22000;BME280;11164;48.818;2.322;2023-03-01T07:22:16;101512.59;;;2.47;34.59
22000;BME280;11164;48.818;2.322;2023-03-01T07:24:42;101504.47;;;2.48;34.40
22000;BME280;11164;48.818;2.322;2023-03-01T07:27:08;101516.47;;;2.43;34.72
22000;BME280;11164;48.818;2.322;2023-03-01T07:29:34;101514.84;;;1.95;35.53
22000;BME280;11164;48.818;2.322;2023-03-01T07:32:02;101511.38;;;2.28;35.12
22000;BME280;11164;48.818;2.322;2023-03-01T07:34:27;101513.69;;;2.44;34.35
22000;BME280;11164;48.818;2.322;2023-03-01T07:36:52;101513.91;;;2.52;34.50
22000;BME280;11164;48.818;2.322;2023-03-01T07:39:18;101503.53;;;2.49;34.77
22000;BME280;11164;48.818;2.322;2023-03-01T07:41:43;101524.56;;;2.64;34.78
22000;BME280;11164;48.818;2.322;2023-03-01T07:44:08;101513.69;;;2.33;35.14
22000;BME280;11164;48.818;2.322;2023-03-01T07:46:34;101505.25;;;2.16;35.16
22000;BME280;11164;48.818;2.322;2023-03-01T07:48:59;101516.97;;;2.25;35.00
22000;BME280;11164;48.818;2.322;2023-03-01T07:51:25;101500.94;;;2.59;34.90
22000;BME280;11164;48.818;2.322;2023-03-01T07:53:50;101508.47;;;2.54;35.16
22000;BME280;11164;48.818;2.322;2023-03-01T07:56:16;101509.78;;;2.59;35.27
22000;BME280;11164;48.818;2.322;2023-03-01T07:58:44;101513.53;;;2.57;35.19
22000;BME280;11164;48.818;2.322;2023-03-01T08:01:15;101509.19;;;2.67;34.31
22000;BME280;11164;48.818;2.322;2023-03-01T08:03:40;101511.84;;;2.56;35.06
22000;BME280;11164;48.818;2.322;2023-03-01T08:06:08;101513.91;;;2.96;34.72
22000;BME280;11164;48.818;2.322;2023-03-01T08:08:34;101514.63;;;3.30;33.97
22000;BME280;11164;48.818;2.322;2023-03-01T08:11:02;101498.47;;;3.22;34.06
22000;BME280;11164;48.818;2.322;2023-03-01T08:13:28;101522.56;;;3.21;33.97
22000;BME280;11164;48.818;2.322;2023-03-01T08:15:54;101520.28;;;3.48;34.65
22000;BME280;11164;48.818;2.322;2023-03-01T08:18:20;101510.88;;;3.33;34.19
22000;BME280;11164;48.818;2.322;2023-03-01T08:20:46;101518.28;;;3.29;34.43
22000;BME280;11164;48.818;2.322;2023-03-01T08:23:11;101513.47;;;3.44;33.80
22000;BME280;11164;48.818;2.322;2023-03-01T08:25:37;101506.72;;;3.61;34.19
22000;BME280;11164;48.818;2.322;2023-03-01T08:28:03;101500.34;;;3.73;33.79
22000;BME280;11164;48.818;2.322;2023-03-01T08:30:28;101510.44;;;3.28;34.70
22000;BME280;11164;48.818;2.322;2023-03-01T08:32:54;101502.75;;;3.34;34.72
22000;BME280;11164;48.818;2.322;2023-03-01T08:35:21;101494.91;;;3.33;34.46
22000;BME280;11164;48.818;2.322;2023-03-01T08:37:47;101507.19;;;3.45;34.27
22000;BME280;11164;48.818;2.322;2023-03-01T08:40:12;101465.13;;;3.28;34.31
22000;BME280;11164;48.818;2.322;2023-03-01T08:42:39;101500.81;;;3.58;34.45
22000;BME280;11164;48.818;2.322;2023-03-01T08:45:05;101498.47;;;3.64;34.73
22000;BME280;11164;48.818;2.322;2023-03-01T08:47:30;101487.34;;;3.17;35.38
22000;BME280;11164;48.818;2.322;2023-03-01T08:49:56;101494.22;;;3.41;34.88
22000;BME280;11164;48.818;2.322;2023-03-01T08:52:21;101474.53;;;3.53;34.42
22000;BME280;11164;48.818;2.322;2023-03-01T08:54:48;101489.88;;;3.82;34.10
22000;BME280;11164;48.818;2.322;2023-03-01T08:57:14;101497.41;;;3.77;34.79
22000;BME280;11164;48.818;2.322;2023-03-01T08:59:39;101486.22;;;4.14;34.22
22000;BME280;11164;48.818;2.322;2023-03-01T09:02:11;101475.16;;;3.87;34.27
22000;BME280;11164;48.818;2.322;2023-03-01T09:04:37;101477.41;;;3.40;34.96
22000;BME280;11164;48.818;2.322;2023-03-01T09:07:03;101471.72;;;3.76;34.17
22000;BME280;11164;48.818;2.322;2023-03-01T09:09:29;101472.91;;;3.92;34.28
22000;BME280;11164;48.818;2.322;2023-03-01T09:11:54;101451.44;;;3.94;34.10
22000;BME280;11164;48.818;2.322;2023-03-01T09:14:19;101435.03;;;3.68;34.34
22000;BME280;11164;48.818;2.322;2023-03-01T09:16:45;101452.81;;;3.37;35.59
22000;BME280;11164;48.818;2.322;2023-03-01T09:19:12;101439.53;;;3.67;34.95
22000;BME280;11164;48.818;2.322;2023-03-01T09:21:37;101449.31;;;4.28;33.46
22000;BME280;11164;48.818;2.322;2023-03-01T09:24:03;101441.34;;;3.98;33.70
22000;BME280;11164;48.818;2.322;2023-03-01T09:26:28;101444.22;;;3.54;34.79
22000;BME280;11164;48.818;2.322;2023-03-01T09:28:55;101443.38;;;3.11;34.95
22000;BME280;11164;48.818;2.322;2023-03-01T09:31:22;101442.09;;;3.06;35.58
22000;BME280;11164;48.818;2.322;2023-03-01T09:33:50;101411.69;;;3.60;34.90
22000;BME280;11164;48.818;2.322;2023-03-01T09:36:18;101443.75;;;4.01;34.41
22000;BME280;11164;48.818;2.322;2023-03-01T09:38:44;101442.72;;;3.61;34.88
22000;BME280;11164;48.818;2.322;2023-03-01T09:43:59;101438.09;;;3.63;34.73
22000;BME280;11164;48.818;2.322;2023-03-01T09:46:42;101424.50;;;3.97;33.97
22000;BME280;11164;48.818;2.322;2023-03-01T09:49:17;101413.84;;;4.07;33.83
22000;BME280;11164;48.818;2.322;2023-03-01T09:51:59;101431.44;;;4.60;33.43
22000;BME280;11164;48.818;2.322;2023-03-01T09:54:25;101426.66;;;4.73;33.35
22000;BME280;11164;48.818;2.322;2023-03-01T09:57:01;101427.97;;;4.28;33.67
22000;BME280;11164;48.818;2.322;2023-03-01T10:02:52;101425.69;;;4.84;33.39
22000;BME280;11164;48.818;2.322;2023-03-01T10:05:39;101418.78;;;4.91;33.41
22000;BME280;11164;48.818;2.322;2023-03-01T10:10:59;101413.44;;;4.62;33.81
22000;BME280;11164;48.818;2.322;2023-03-01T10:16:17;101407.88;;;4.34;34.00
22000;BME280;11164;48.818;2.322;2023-03-01T10:18:48;101391.22;;;4.52;33.72
22000;BME280;11164;48.818;2.322;2023-03-01T10:21:19;101394.00;;;5.09;33.31
22000;BME280;11164;48.818;2.322;2023-03-01T10:23:46;101390.59;;;5.36;33.14
22000;BME280;11164;48.818;2.322;2023-03-01T10:29:09;101377.91;;;6.03;31.46
22000;BME280;11164;48.818;2.322;2023-03-01T10:31:44;101390.16;;;6.33;32.04
22000;BME280;11164;48.818;2.322;2023-03-01T10:36:38;101391.63;;;5.63;33.13
22000;BME280;11164;48.818;2.322;2023-03-01T10:39:12;101373.25;;;5.77;31.17
22000;BME280;11164;48.818;2.322;2023-03-01T10:41:51;101387.91;;;5.73;32.53
22000;BME280;11164;48.818;2.322;2023-03-01T10:44:46;101395.22;;;6.09;32.03
22000;BME280;11164;48.818;2.322;2023-03-01T10:47:27;101384.81;;;6.51;30.77
22000;BME280;11164;48.818;2.322;2023-03-01T10:50:01;101384.69;;;6.25;31.98
22000;BME280;11164;48.818;2.322;2023-03-01T10:52:33;101380.03;;;5.72;32.61
22000;BME280;11164;48.818;2.322;2023-03-01T10:55:34;101385.75;;;5.87;31.35
22000;BME280;11164;48.818;2.322;2023-03-01T10:58:20;101367.91;;;5.77;31.43
22000;BME280;11164;48.818;2.322;2023-03-01T11:01:23;101369.53;;;6.16;31.49
22000;BME280;11164;48.818;2.322;2023-03-01T11:04:11;101373.56;;;6.20;30.34
22000;BME280;11164;48.818;2.322;2023-03-01T11:06:39;101377.09;;;6.21;32.04
22000;BME280;11164;48.818;2.322;2023-03-01T11:09:22;101376.47;;;5.81;31.41
22000;BME280;11164;48.818;2.322;2023-03-01T11:11:53;101361.00;;;5.75;31.70
22000;BME280;11164;48.818;2.322;2023-03-01T11:14:24;101371.38;;;5.88;32.44
22000;BME280;11164;48.818;2.322;2023-03-01T11:17:14;101362.28;;;6.26;31.28
22000;BME280;11164;48.818;2.322;2023-03-01T11:19:41;101369.53;;;6.16;31.90
22000;BME280;11164;48.818;2.322;2023-03-01T11:22:13;101358.97;;;5.87;32.58
22000;BME280;11164;48.818;2.322;2023-03-01T11:24:54;101364.28;;;6.24;31.72
22000;BME280;11164;48.818;2.322;2023-03-01T11:27:30;101342.16;;;5.94;31.33
22000;BME280;11164;48.818;2.322;2023-03-01T11:30:51;101355.84;;;6.19;31.25
22000;BME280;11164;48.818;2.322;2023-03-01T11:33:17;101361.19;;;6.19;30.74
22000;BME280;11164;48.818;2.322;2023-03-01T11:36:13;101347.63;;;6.21;31.83
22000;BME280;11164;48.818;2.322;2023-03-01T11:38:37;101338.19;;;6.44;30.96
22000;BME280;11164;48.818;2.322;2023-03-01T11:43:49;101325.72;;;6.53;31.20
22000;BME280;11164;48.818;2.322;2023-03-01T12:00:37;101317.50;;;7.51;28.92
22000;BME280;11164;48.818;2.322;2023-03-01T12:05:56;101290.34;;;7.20;29.23
22000;BME280;11164;48.818;2.322;2023-03-01T12:17:16;101302.97;;;7.27;30.89
22000;BME280;11164;48.818;2.322;2023-03-01T12:22:31;101279.19;;;7.33;30.36
22000;BME280;11164;48.818;2.322;2023-03-01T12:25:25;101292.66;;;7.49;29.87
22000;BME280;11164;48.818;2.322;2023-03-01T12:31:00;101273.88;;;7.92;30.24
22000;BME280;11164;48.818;2.322;2023-03-01T12:37:13;101273.00;;;7.83;28.51
22000;BME280;11164;48.818;2.322;2023-03-01T12:39:56;101268.53;;;7.57;29.12
22000;BME280;11164;48.818;2.322;2023-03-01T12:50:59;101243.47;;;6.98;30.66
22000;BME280;11164;48.818;2.322;2023-03-01T12:53:28;101238.03;;;7.16;30.44
22000;BME280;11164;48.818;2.322;2023-03-01T12:56:01;101237.16;;;7.49;30.56
22000;BME280;11164;48.818;2.322;2023-03-01T12:58:44;101225.91;;;8.05;29.66
22000;BME280;11164;48.818;2.322;2023-03-01T13:03:52;101222.81;;;7.24;29.31
22000;BME280;11164;48.818;2.322;2023-03-01T13:11:44;101195.84;;;8.26;29.81
22000;BME280;11164;48.818;2.322;2023-03-01T13:16:53;101181.38;;;9.08;27.78
22000;BME280;11164;48.818;2.322;2023-03-01T13:19:22;101163.97;;;10.65;26.54
22000;BME280;11164;48.818;2.322;2023-03-01T13:21:49;101163.13;;;11.46;25.44
22000;BME280;11164;48.818;2.322;2023-03-01T13:24:39;101172.34;;;11.73;23.30
22000;BME280;11164;48.818;2.322;2023-03-01T13:29:50;101162.84;;;11.77;24.87
22000;BME280;11164;48.818;2.322;2023-03-01T13:32:23;101173.28;;;11.44;26.59
22000;BME280;11164;48.818;2.322;2023-03-01T13:34:56;101160.28;;;10.05;28.73
22000;BME280;11164;48.818;2.322;2023-03-01T13:37:36;101157.59;;;9.59;28.97
22000;BME280;11164;48.818;2.322;2023-03-01T13:42:54;101143.56;;;9.72;30.00
22000;BME280;11164;48.818;2.322;2023-03-01T13:45:24;101146.28;;;9.87;29.67
22000;BME280;11164;48.818;2.322;2023-03-01T13:47:57;101133.13;;;9.46;29.40
22000;BME280;11164;48.818;2.322;2023-03-01T13:50:38;101146.69;;;9.99;27.98
22000;BME280;11164;48.818;2.322;2023-03-01T13:53:13;101144.00;;;9.99;28.03
22000;BME280;11164;48.818;2.322;2023-03-01T13:55:47;101117.13;;;10.28;28.53
22000;BME280;11164;48.818;2.322;2023-03-01T13:58:33;101127.88;;;10.66;24.96
22000;BME280;11164;48.818;2.322;2023-03-01T14:01:04;101130.47;;;10.07;26.50
22000;BME280;11164;48.818;2.322;2023-03-01T14:03:32;101116.66;;;10.25;28.17
22000;BME280;11164;48.818;2.322;2023-03-01T14:06:07;101102.84;;;10.73;24.75
22000;BME280;11164;48.818;2.322;2023-03-01T14:08:36;101118.19;;;11.02;27.77
22000;BME280;11164;48.818;2.322;2023-03-01T14:14:18;101111.88;;;10.80;26.42
22000;BME280;11164;48.818;2.322;2023-03-01T14:19:27;101096.09;;;11.13;27.55
22000;BME280;11164;48.818;2.322;2023-03-01T14:24:27;101100.06;;;11.54;27.12
22000;BME280;11164;48.818;2.322;2023-03-01T14:26:54;101097.13;;;11.34;27.64
22000;BME280;11164;48.818;2.322;2023-03-01T14:29:25;101091.97;;;11.75;27.33
22000;BME280;11164;48.818;2.322;2023-03-01T14:31:50;101090.91;;;11.55;27.61
22000;BME280;11164;48.818;2.322;2023-03-01T14:34:21;101087.50;;;11.46;26.81
22000;BME280;11164;48.818;2.322;2023-03-01T14:36:47;101093.09;;;11.44;27.59
22000;BME280;11164;48.818;2.322;2023-03-01T14:39:17;101076.19;;;11.57;27.36
22000;BME280;11164;48.818;2.322;2023-03-01T14:41:43;101084.25;;;11.94;27.05
22000;BME280;11164;48.818;2.322;2023-03-01T14:44:15;101075.28;;;11.93;26.73
22000;BME280;11164;48.818;2.322;2023-03-01T14:46:44;101077.88;;;11.80;27.49
22000;BME280;11164;48.818;2.322;2023-03-01T14:49:14;101076.84;;;11.59;27.47
22000;BME280;11164;48.818;2.322;2023-03-01T14:51:42;101081.88;;;11.62;27.35